createdAt,value
2019-05-19T00:00:07.626Z,14.13
2019-05-19T00:02:36.422Z,14.17
2019-05-19T00:05:06.739Z,16.90
2019-05-19T00:07:35.601Z,16.40
2019-05-19T00:10:07.809Z,16.20
2019-05-19T00:12:36.681Z,16.80
2019-05-19T00:15:06.632Z,15.40
2019-05-19T00:17:35.509Z,15.20
2019-05-19T00:20:07.940Z,15.30
2019-05-19T00:22:36.698Z,14.87
2019-05-19T00:25:06.537Z,13.90
2019-05-19T00:27:35.330Z,14.60
2019-05-19T00:30:08.118Z,14.10
2019-05-19T00:32:36.959Z,16.00
2019-05-19T00:35:08.152Z,14.83
2019-05-19T00:37:36.842Z,16.77
2019-05-19T00:40:07.030Z,15.13
2019-05-19T00:42:35.772Z,15.38
2019-05-19T00:45:07.258Z,17.30
2019-05-19T00:47:36.050Z,16.73
2019-05-19T00:50:06.993Z,17.45
2019-05-19T00:52:35.919Z,16.20
2019-05-19T00:55:06.853Z,18.83
2019-05-19T00:57:37.198Z,18.13
2019-05-19T01:00:09.077Z,17.53
2019-05-19T01:02:37.924Z,15.93
2019-05-19T01:05:08.128Z,17.40
2019-05-19T01:07:38.641Z,17.50
2019-05-19T01:10:09.020Z,17.50
2019-05-19T01:12:37.842Z,17.17
2019-05-19T01:15:09.225Z,19.20
2019-05-19T01:17:37.990Z,18.60
2019-05-19T01:20:08.357Z,17.73
2019-05-19T01:22:37.306Z,19.00
2019-05-19T01:25:08.316Z,18.32
2019-05-19T01:27:37.237Z,18.87
2019-05-19T01:30:11.402Z,17.35
2019-05-19T01:32:40.175Z,17.90
2019-05-19T01:35:09.179Z,20.10
2019-05-19T01:37:37.931Z,18.43
2019-05-19T01:40:09.303Z,19.10
2019-05-19T01:42:38.124Z,18.60
2019-05-19T01:45:08.277Z,18.52
2019-05-19T01:47:37.200Z,18.57
2019-05-19T01:50:17.795Z,17.87
2019-05-19T01:52:38.881Z,19.33
2019-05-19T01:55:08.365Z,19.17
2019-05-19T01:57:37.111Z,19.50
2019-05-19T02:00:08.868Z,17.30
2019-05-19T02:02:37.696Z,20.07
2019-05-19T02:05:09.453Z,20.23
2019-05-19T02:07:38.323Z,20.67
2019-05-19T02:10:09.660Z,19.30
2019-05-19T02:12:38.471Z,19.27
2019-05-19T02:15:07.515Z,19.37
2019-05-19T02:17:36.282Z,18.13
2019-05-19T02:20:07.609Z,20.33
2019-05-19T02:22:36.376Z,19.87
2019-05-19T02:25:06.943Z,18.93
2019-05-19T02:27:35.735Z,21.07
2019-05-19T02:30:07.627Z,21.52
2019-05-19T02:32:36.471Z,20.77
2019-05-19T02:35:07.028Z,21.40
2019-05-19T02:37:35.767Z,20.27
2019-05-19T02:40:06.827Z,21.23
2019-05-19T02:42:38.583Z,21.10
2019-05-19T02:45:08.933Z,20.87
2019-05-19T02:47:40.644Z,22.60
2019-05-19T02:50:09.735Z,20.57
2019-05-19T02:52:41.475Z,20.50
2019-05-19T02:55:10.370Z,20.57
2019-05-19T02:57:40.815Z,21.60
2019-05-19T03:00:10.892Z,21.13
2019-05-19T03:02:39.688Z,19.40
2019-05-19T03:05:09.496Z,16.97
2019-05-19T03:07:38.310Z,17.83
2019-05-19T03:10:08.192Z,20.07
2019-05-19T03:12:36.976Z,20.55
2019-05-19T03:15:07.044Z,20.57
2019-05-19T03:17:35.773Z,20.87
2019-05-19T03:20:06.741Z,19.90
2019-05-19T03:22:35.521Z,18.57
2019-05-19T03:25:06.847Z,20.93
2019-05-19T03:27:35.582Z,17.97
2019-05-19T03:30:27.833Z,19.67
2019-05-19T03:33:00.942Z,21.13
2019-05-19T03:35:29.756Z,21.70
2019-05-19T03:37:58.530Z,21.63
2019-05-19T03:40:27.350Z,21.23
2019-05-19T03:42:56.149Z,22.67
2019-05-19T03:45:24.886Z,21.80
2019-05-19T03:47:53.624Z,21.30
2019-05-19T03:50:22.407Z,19.75
2019-05-19T03:52:51.144Z,19.80
2019-05-19T03:55:19.971Z,21.10
2019-05-19T03:57:48.743Z,20.43
2019-05-19T04:00:18.322Z,22.27
2019-05-19T04:02:47.065Z,22.20
2019-05-19T04:05:15.936Z,22.73
2019-05-19T04:07:44.749Z,21.63
2019-05-19T04:10:15.236Z,22.50
2019-05-19T04:12:43.983Z,22.57
2019-05-19T04:15:12.972Z,23.10
2019-05-19T04:17:41.726Z,23.93
2019-05-19T04:20:11.293Z,22.07
2019-05-19T04:22:40.165Z,26.90
2019-05-19T04:25:09.009Z,25.70
2019-05-19T04:27:37.773Z,26.00
2019-05-19T04:30:08.482Z,24.87
2019-05-19T04:32:37.355Z,25.00
2019-05-19T04:35:08.109Z,23.15
2019-05-19T04:37:36.868Z,23.97
2019-05-19T04:40:07.386Z,22.37
2019-05-19T04:42:36.133Z,23.00
2019-05-19T04:45:05.319Z,21.73
2019-05-19T04:47:34.057Z,23.23
2019-05-19T04:50:02.791Z,20.57
2019-05-19T04:52:31.825Z,22.60
2019-05-19T04:55:00.699Z,23.57
2019-05-19T04:57:29.449Z,22.43
2019-05-19T04:59:59.402Z,21.80
2019-05-19T05:02:28.366Z,22.07
2019-05-19T05:04:57.201Z,22.30
2019-05-19T05:07:26.018Z,24.27
2019-05-19T05:09:56.669Z,24.10
2019-05-19T05:12:25.414Z,24.27
2019-05-19T05:14:54.200Z,22.80
2019-05-19T05:17:23.014Z,23.00
2019-05-19T05:19:51.748Z,22.33
2019-05-19T05:22:22.451Z,23.15
2019-05-19T05:25:06.418Z,24.20
2019-05-19T05:27:35.248Z,23.20
2019-05-19T05:30:07.779Z,24.70
2019-05-19T05:32:41.025Z,24.80
2019-05-19T05:35:10.620Z,23.27
2019-05-19T05:37:39.360Z,26.10
2019-05-19T05:40:09.109Z,25.43
2019-05-19T05:42:37.843Z,25.87
2019-05-19T05:45:08.060Z,28.43
2019-05-19T05:47:36.832Z,26.40
2019-05-19T05:50:09.691Z,26.30
2019-05-19T05:52:39.172Z,26.43
2019-05-19T05:55:09.246Z,26.50
2019-05-19T05:57:38.050Z,28.60
2019-05-19T06:00:09.092Z,26.53
2019-05-19T06:02:37.852Z,26.27
2019-05-19T06:05:07.928Z,26.10
2019-05-19T06:07:36.693Z,28.20
2019-05-19T06:10:08.089Z,26.67
2019-05-19T06:12:36.829Z,26.00
2019-05-19T06:15:06.876Z,27.23
2019-05-19T06:17:35.694Z,26.40
2019-05-19T06:20:07.702Z,26.93
2019-05-19T06:22:37.034Z,28.90
2019-05-19T06:25:06.990Z,29.33
2019-05-19T06:27:35.855Z,28.07
2019-05-19T06:30:08.673Z,27.30
2019-05-19T06:32:38.582Z,28.10
2019-05-19T06:35:07.622Z,29.90
2019-05-19T06:37:36.543Z,30.40
2019-05-19T06:40:07.282Z,30.37
2019-05-19T06:42:36.264Z,27.97
2019-05-19T06:45:07.228Z,28.55
2019-05-19T06:47:36.020Z,30.43
2019-05-19T06:50:08.169Z,30.63
2019-05-19T06:52:36.920Z,28.83
2019-05-19T06:55:07.602Z,30.70
2019-05-19T06:57:36.440Z,28.23
2019-05-19T07:00:07.542Z,28.20
2019-05-19T07:02:36.578Z,30.27
2019-05-19T07:05:08.399Z,30.80
2019-05-19T07:07:37.179Z,29.00
2019-05-19T07:10:08.598Z,30.30
2019-05-19T07:12:37.474Z,30.12
2019-05-19T07:15:07.417Z,29.03
2019-05-19T07:17:36.283Z,28.97
2019-05-19T07:20:06.475Z,28.87
2019-05-19T07:22:37.535Z,29.80
2019-05-19T07:25:08.101Z,28.27
2019-05-19T07:27:36.946Z,28.67
2019-05-19T07:30:09.452Z,31.67
2019-05-19T07:32:38.239Z,29.83
2019-05-19T07:35:07.775Z,30.20
2019-05-19T07:37:36.547Z,29.50
2019-05-19T07:40:06.963Z,29.57
2019-05-19T07:42:35.758Z,31.80
2019-05-19T07:45:05.905Z,29.93
2019-05-19T07:47:35.238Z,30.70
2019-05-19T07:50:04.998Z,30.03
2019-05-19T07:52:33.805Z,29.50
2019-05-19T07:55:02.584Z,32.20
2019-05-19T07:57:31.436Z,28.90
2019-05-19T08:00:00.216Z,30.00
2019-05-19T08:02:29.107Z,28.00
2019-05-19T08:04:57.866Z,30.00
2019-05-19T08:07:26.672Z,28.30
2019-05-19T08:09:55.443Z,28.57
2019-05-19T08:12:24.266Z,27.40
2019-05-19T08:14:53.095Z,25.30
2019-05-19T08:17:21.867Z,28.30
2019-05-19T08:19:50.628Z,28.10
2019-05-19T08:22:19.568Z,25.23
2019-05-19T08:24:48.315Z,25.97
2019-05-19T08:27:17.055Z,26.23
2019-05-19T08:29:46.211Z,26.47
2019-05-19T08:32:14.958Z,24.57
2019-05-19T08:34:43.707Z,26.30
2019-05-19T08:37:12.472Z,25.97
2019-05-19T08:39:41.222Z,28.77
2019-05-19T08:42:10.100Z,28.03
2019-05-19T08:44:38.848Z,27.43
2019-05-19T08:47:08.538Z,28.10
2019-05-19T08:49:37.302Z,28.13
2019-05-19T08:52:09.299Z,26.27
2019-05-19T08:54:38.366Z,28.80
2019-05-19T08:57:07.136Z,27.00
2019-05-19T08:59:35.897Z,28.27
2019-05-19T09:02:05.334Z,25.97
2019-05-19T09:04:34.122Z,25.40
2019-05-19T09:07:02.856Z,26.87
2019-05-19T09:09:31.615Z,26.40
2019-05-19T09:12:00.443Z,27.07
2019-05-19T09:14:29.228Z,26.70
2019-05-19T09:16:58.014Z,25.10
2019-05-19T09:19:26.857Z,25.33
2019-05-19T09:21:55.621Z,23.10
2019-05-19T09:24:30.404Z,24.60
2019-05-19T09:26:54.944Z,23.93
2019-05-19T09:29:23.699Z,23.27
2019-05-19T09:31:52.619Z,21.87
2019-05-19T09:34:21.506Z,23.63
2019-05-19T09:36:50.325Z,19.97
2019-05-19T09:39:19.080Z,18.90
2019-05-19T09:41:47.910Z,16.90
2019-05-19T09:44:16.675Z,16.93
2019-05-19T09:46:45.424Z,14.10
2019-05-19T09:49:32.556Z,12.17
2019-05-19T09:52:03.287Z,12.20
2019-05-19T09:54:44.208Z,13.27
2019-05-19T09:57:02.450Z,12.63
2019-05-19T09:59:31.283Z,13.10
2019-05-19T10:02:00.082Z,13.47
2019-05-19T10:04:28.944Z,11.97
2019-05-19T10:06:57.693Z,11.27
2019-05-19T10:09:56.943Z,12.70
2019-05-19T10:12:25.706Z,12.80
2019-05-19T10:14:54.661Z,13.07
2019-05-19T10:17:23.484Z,12.47
2019-05-19T10:19:52.267Z,12.40
2019-05-19T10:22:21.274Z,14.33
2019-05-19T10:25:04.405Z,14.43
2019-05-19T10:27:21.758Z,14.00
2019-05-19T10:29:51.060Z,13.90
2019-05-19T10:32:19.952Z,14.90
2019-05-19T10:34:48.699Z,13.77
2019-05-19T10:37:17.571Z,13.00
2019-05-19T10:39:46.311Z,12.60
2019-05-19T10:42:15.068Z,12.70
2019-05-19T10:44:44.128Z,12.27
2019-05-19T10:47:13.027Z,10.90
2019-05-19T10:49:43.079Z,7.10
2019-05-19T10:52:12.431Z,6.90
2019-05-19T10:54:41.183Z,6.20
2019-05-19T10:57:10.045Z,6.43
2019-05-19T10:59:38.807Z,6.47
2019-05-19T11:02:07.759Z,5.93
2019-05-19T11:04:36.566Z,5.33
2019-05-19T11:07:05.317Z,5.60
2019-05-19T11:09:34.084Z,5.63
2019-05-19T11:12:02.965Z,5.40
2019-05-19T11:14:31.719Z,4.40
2019-05-19T11:17:00.502Z,4.70
2019-05-19T11:19:29.285Z,4.53
2019-05-19T11:22:03.634Z,4.67
2019-05-19T11:24:42.486Z,4.50
2019-05-19T11:27:11.371Z,4.23
2019-05-19T11:29:40.122Z,4.50
2019-05-19T11:32:08.894Z,4.53
2019-05-19T11:34:37.634Z,4.03
2019-05-19T11:37:07.879Z,4.83
2019-05-19T11:39:36.614Z,4.70
2019-05-19T11:42:05.374Z,4.63
2019-05-19T11:44:34.251Z,4.33
2019-05-19T11:47:03.055Z,5.20
2019-05-19T11:49:31.817Z,4.40
2019-05-19T11:52:00.551Z,4.67
2019-05-19T11:54:29.319Z,4.93
2019-05-19T11:56:58.097Z,4.70
2019-05-19T11:59:27.004Z,4.58
2019-05-19T12:01:55.733Z,3.80
2019-05-19T12:04:24.460Z,4.10
2019-05-19T12:06:53.308Z,3.97
2019-05-19T12:09:22.039Z,3.97
2019-05-19T12:11:50.907Z,3.63
2019-05-19T12:14:19.804Z,4.10
2019-05-19T12:16:48.759Z,4.63
2019-05-19T12:19:17.539Z,4.53
2019-05-19T12:21:46.297Z,4.70
2019-05-19T12:24:15.029Z,3.83
2019-05-19T12:26:43.802Z,4.33
2019-05-19T12:29:12.541Z,4.20
2019-05-19T12:31:41.271Z,4.20
2019-05-19T12:34:10.167Z,4.65
2019-05-19T12:36:38.906Z,3.90
2019-05-19T12:39:07.679Z,4.30
2019-05-19T12:41:36.430Z,4.40
2019-05-19T12:44:05.317Z,4.17
2019-05-19T12:46:34.043Z,4.00
2019-05-19T12:49:02.814Z,4.23
2019-05-19T12:51:31.564Z,3.87
2019-05-19T12:54:00.332Z,4.60
2019-05-19T12:56:39.096Z,4.07
2019-05-19T12:58:59.667Z,3.87
2019-05-19T13:01:29.095Z,4.13
2019-05-19T13:03:57.838Z,4.93
2019-05-19T13:06:26.636Z,4.40
2019-05-19T13:08:55.383Z,4.40
2019-05-19T13:11:24.164Z,5.60
2019-05-19T13:13:52.891Z,5.43
2019-05-19T13:16:21.770Z,5.97
2019-05-19T13:18:50.518Z,5.60
2019-05-19T13:21:19.282Z,4.85
2019-05-19T13:23:48.043Z,4.60
2019-05-19T13:26:16.829Z,5.17
2019-05-19T13:28:45.568Z,5.40
2019-05-19T13:31:14.350Z,5.00
2019-05-19T13:33:43.075Z,6.17
2019-05-19T13:36:11.828Z,5.00
2019-05-19T13:38:40.574Z,5.40
2019-05-19T13:41:09.425Z,4.83
2019-05-19T13:43:38.180Z,5.07
2019-05-19T13:46:06.975Z,4.27
2019-05-19T13:48:35.753Z,4.23
2019-05-19T13:51:05.327Z,4.95
2019-05-19T13:53:34.121Z,4.00
2019-05-19T13:56:02.881Z,4.70
2019-05-19T13:58:31.730Z,4.30
2019-05-19T14:01:00.479Z,4.50
2019-05-19T14:03:29.206Z,5.30
2019-05-19T14:05:58.014Z,4.23
2019-05-19T14:08:27.777Z,4.73
2019-05-19T14:10:56.550Z,5.00
2019-05-19T14:13:25.437Z,5.00
2019-05-19T14:15:54.182Z,5.23
2019-05-19T14:18:22.920Z,6.53
2019-05-19T14:20:51.811Z,6.00
2019-05-19T14:23:20.559Z,6.10
2019-05-19T14:25:49.312Z,6.90
2019-05-19T14:28:18.086Z,7.80
2019-05-19T14:30:46.858Z,7.23
2019-05-19T14:33:15.589Z,6.60
2019-05-19T14:35:44.392Z,6.30
2019-05-19T14:38:13.167Z,7.43
2019-05-19T14:40:42.736Z,8.10
2019-05-19T14:43:11.607Z,7.85
2019-05-19T14:45:40.345Z,7.93
2019-05-19T14:48:09.147Z,7.33
2019-05-19T14:50:37.881Z,7.10
2019-05-19T14:53:06.614Z,7.30
2019-05-19T14:55:35.480Z,6.30
2019-05-19T14:58:05.227Z,4.72
2019-05-19T15:00:34.118Z,5.10
2019-05-19T15:03:02.892Z,6.50
2019-05-19T15:05:31.615Z,5.70
2019-05-19T15:08:00.371Z,6.67
2019-05-19T15:10:29.249Z,8.53
2019-05-19T15:12:57.981Z,7.33
2019-05-19T15:15:26.770Z,7.73
2019-05-19T15:17:55.645Z,7.13
2019-05-19T15:20:24.573Z,8.68
2019-05-19T15:22:53.299Z,6.30
2019-05-19T15:25:22.089Z,6.60
2019-05-19T15:27:59.872Z,6.10
2019-05-19T15:30:21.536Z,6.25
2019-05-19T15:32:50.495Z,5.80
2019-05-19T15:35:19.451Z,5.80
2019-05-19T15:37:48.187Z,5.80
2019-05-19T15:40:16.909Z,4.63
2019-05-19T15:42:45.804Z,5.00
2019-05-19T15:45:15.980Z,6.12
2019-05-19T15:47:44.761Z,5.43
2019-05-19T15:50:13.532Z,5.60
2019-05-19T15:52:42.265Z,4.30
2019-05-19T15:55:11.143Z,4.78
2019-05-19T15:57:39.921Z,3.50
2019-05-19T16:00:10.580Z,4.27
2019-05-19T16:02:39.316Z,6.00
2019-05-19T16:05:08.395Z,60.07
2019-05-19T16:07:37.561Z,8.80
2019-05-19T16:10:11.261Z,4.63
2019-05-19T16:12:40.022Z,4.08
2019-05-19T16:15:09.787Z,3.10
2019-05-19T16:17:38.527Z,2.90
2019-05-19T16:20:10.396Z,3.87
2019-05-19T16:22:39.122Z,3.30
2019-05-19T16:25:13.827Z,4.40
2019-05-19T16:27:58.266Z,6.83
2019-05-19T16:30:28.219Z,5.40
2019-05-19T16:32:57.409Z,4.00
2019-05-19T16:35:27.045Z,3.67
2019-05-19T16:37:56.590Z,3.60
2019-05-19T16:40:25.969Z,3.80
2019-05-19T16:42:54.897Z,4.17
2019-05-19T16:45:24.549Z,5.43
2019-05-19T16:47:53.843Z,5.50
2019-05-19T16:50:23.301Z,4.70
2019-05-19T16:52:52.867Z,4.03
2019-05-19T16:55:23.754Z,3.80
2019-05-19T16:57:53.014Z,5.17
2019-05-19T17:00:22.539Z,4.08
2019-05-19T17:02:51.557Z,5.33
2019-05-19T17:05:20.999Z,3.67
2019-05-19T17:07:51.435Z,4.93
2019-05-19T17:10:20.968Z,4.37
2019-05-19T17:12:50.445Z,4.53
2019-05-19T17:15:19.896Z,4.97
2019-05-19T17:17:49.438Z,6.60
2019-05-19T17:20:21.626Z,5.13
2019-05-19T17:22:50.449Z,5.47
2019-05-19T17:25:19.250Z,5.60
2019-05-19T17:27:48.021Z,5.33
2019-05-19T17:30:17.720Z,4.42
2019-05-19T17:32:46.495Z,4.97
2019-05-19T17:35:15.277Z,5.12
2019-05-19T17:37:44.016Z,5.50
2019-05-19T17:40:14.561Z,5.17
2019-05-19T17:42:43.301Z,5.10
2019-05-19T17:45:12.690Z,5.70
2019-05-19T17:47:43.070Z,5.67
2019-05-19T17:50:13.360Z,5.62
2019-05-19T17:52:42.122Z,6.30
2019-05-19T17:55:11.162Z,6.00
2019-05-19T17:57:40.309Z,6.70
2019-05-19T18:00:10.289Z,6.10
2019-05-19T18:02:39.379Z,5.67
2019-05-19T18:05:08.442Z,6.57
2019-05-19T18:07:37.293Z,6.63
2019-05-19T18:10:08.113Z,5.70
2019-05-19T18:12:36.900Z,7.10
2019-05-19T18:15:08.302Z,7.50
2019-05-19T18:17:37.030Z,6.87
2019-05-19T18:20:07.590Z,7.23
2019-05-19T18:22:36.400Z,6.63
2019-05-19T18:25:07.213Z,6.97
2019-05-19T18:27:36.196Z,7.13
2019-05-19T18:30:07.251Z,6.83
2019-05-19T18:32:36.051Z,6.75
2019-05-19T18:35:07.464Z,6.17
2019-05-19T18:37:36.235Z,7.20
2019-05-19T18:40:08.366Z,7.20
2019-05-19T18:42:37.231Z,7.27
2019-05-19T18:45:08.500Z,8.00
2019-05-19T18:47:39.908Z,6.77
2019-05-19T18:50:08.822Z,7.87
2019-05-19T18:52:37.556Z,9.50
2019-05-19T18:55:09.680Z,10.60
2019-05-19T18:57:38.543Z,9.90
2019-05-19T19:00:08.705Z,9.53
2019-05-19T19:02:37.475Z,10.73
2019-05-19T19:05:07.431Z,8.47
2019-05-19T19:07:50.108Z,7.90
2019-05-19T19:10:18.877Z,7.00
2019-05-19T19:12:48.034Z,8.70
2019-05-19T19:15:16.843Z,7.60
2019-05-19T19:17:45.673Z,7.03
2019-05-19T19:20:14.677Z,8.37
2019-05-19T19:22:45.331Z,8.80
2019-05-19T19:25:14.184Z,8.70
2019-05-19T19:27:42.975Z,7.97
2019-05-19T19:30:12.377Z,8.10
2019-05-19T19:32:41.153Z,7.60
2019-05-19T19:35:10.045Z,7.70
2019-05-19T19:37:38.852Z,7.93
2019-05-19T19:40:08.687Z,8.60
2019-05-19T19:42:37.458Z,8.47
2019-05-19T19:45:07.936Z,8.27
2019-05-19T19:47:36.680Z,9.05
2019-05-19T19:50:09.900Z,9.50
2019-05-19T19:52:38.670Z,8.93
2019-05-19T19:55:08.008Z,8.80
2019-05-19T19:57:36.834Z,8.53
2019-05-19T20:00:17.896Z,9.30
2019-05-19T20:02:37.721Z,9.13
2019-05-19T20:05:06.901Z,9.20
2019-05-19T20:07:35.677Z,9.47
2019-05-19T20:10:06.650Z,9.00
2019-05-19T20:12:35.435Z,8.87
2019-05-19T20:15:05.393Z,8.58
2019-05-19T20:17:34.231Z,9.60
2019-05-19T20:20:03.004Z,9.60
2019-05-19T20:22:31.751Z,8.83
2019-05-19T20:25:00.656Z,10.23
2019-05-19T20:27:29.432Z,9.47
2019-05-19T20:29:58.342Z,9.20
2019-05-19T20:32:27.126Z,10.50
2019-05-19T20:34:56.033Z,11.83
2019-05-19T20:37:24.801Z,10.60
2019-05-19T20:39:55.206Z,10.07
2019-05-19T20:42:23.985Z,10.10
2019-05-19T20:44:53.005Z,9.50
2019-05-19T20:47:21.894Z,9.15
2019-05-19T20:49:50.769Z,8.67
2019-05-19T20:52:19.566Z,9.00
2019-05-19T20:54:48.414Z,9.27
2019-05-19T20:57:17.198Z,9.57
2019-05-19T20:59:45.957Z,8.80
2019-05-19T21:02:14.794Z,9.85
2019-05-19T21:04:43.628Z,9.83
2019-05-19T21:07:12.396Z,9.23
2019-05-19T21:09:41.169Z,10.03
2019-05-19T21:12:10.023Z,9.63
2019-05-19T21:14:38.838Z,8.90
2019-05-19T21:17:07.590Z,9.50
2019-05-19T21:19:36.502Z,9.50
2019-05-19T21:22:05.294Z,10.03
2019-05-19T21:24:34.044Z,10.80
2019-05-19T21:27:02.818Z,9.33
2019-05-19T21:29:33.188Z,11.30
2019-05-19T21:32:01.930Z,14.77
2019-05-19T21:34:30.769Z,15.77
2019-05-19T21:36:59.558Z,17.03
2019-05-19T21:39:28.312Z,16.57
2019-05-19T21:41:57.128Z,20.10
2019-05-19T21:44:25.874Z,25.48
2019-05-19T21:46:54.639Z,20.63
2019-05-19T21:49:23.509Z,22.20
2019-05-19T21:51:52.289Z,24.23
2019-05-19T21:54:21.036Z,23.22
2019-05-19T21:56:49.802Z,21.53
2019-05-19T21:59:18.567Z,18.53
2019-05-19T22:01:47.318Z,16.13
2019-05-19T22:04:16.104Z,14.73
2019-05-19T22:06:46.511Z,17.13
2019-05-19T22:09:15.269Z,17.37
2019-05-19T22:11:44.079Z,17.00
2019-05-19T22:14:12.836Z,17.25
2019-05-19T22:16:41.595Z,15.07
2019-05-19T22:19:10.371Z,16.27
2019-05-19T22:21:39.123Z,17.50
2019-05-19T22:24:07.962Z,17.10
2019-05-19T22:26:36.725Z,15.17
2019-05-19T22:29:06.320Z,16.40
2019-05-19T22:31:37.178Z,18.30
2019-05-19T22:34:05.689Z,17.90
2019-05-19T22:36:34.426Z,18.90
2019-05-19T22:39:12.388Z,18.90
2019-05-19T22:41:41.689Z,18.20
2019-05-19T22:44:10.438Z,19.37
2019-05-19T22:46:39.207Z,18.30
2019-05-19T22:49:07.937Z,18.13
2019-05-19T22:51:36.825Z,20.30
2019-05-19T22:54:07.126Z,18.40
2019-05-19T22:56:35.880Z,17.97
2019-05-19T22:59:18.827Z,18.30
2019-05-19T23:01:35.484Z,19.70
2019-05-19T23:04:05.107Z,19.82
2019-05-19T23:06:33.964Z,18.50
2019-05-19T23:09:02.800Z,21.30
2019-05-19T23:11:31.562Z,19.70
2019-05-19T23:14:00.431Z,21.87
2019-05-19T23:16:29.182Z,20.27
2019-05-19T23:18:57.938Z,20.50
2019-05-19T23:21:26.717Z,20.80
2019-05-19T23:23:55.451Z,21.57
2019-05-19T23:26:24.245Z,22.07
2019-05-19T23:28:52.982Z,21.17
2019-05-19T23:31:21.729Z,20.57
2019-05-19T23:33:50.585Z,22.03
2019-05-19T23:36:19.328Z,22.40
2019-05-19T23:38:48.064Z,23.87
2019-05-19T23:41:16.871Z,24.00
2019-05-19T23:43:45.614Z,25.10
2019-05-19T23:46:14.391Z,24.63
2019-05-19T23:48:43.158Z,27.90
2019-05-19T23:51:11.906Z,27.30
2019-05-19T23:53:40.672Z,32.63
2019-05-19T23:56:09.467Z,31.57
2019-05-19T23:58:38.201Z,31.00
